sensor_id;sensor_type;location;lat;lon;timestamp;temperature;humidity
30097;DHT22;16915;51.466;3.610;2023-09-18T00:00:14;20.50;99.90
30097;DHT22;16915;51.466;3.610;2023-09-18T00:02:40;20.50;99.90
30097;DHT22;16915;51.466;3.610;2023-09-18T00:05:05;20.60;99.90
30097;DHT22;16915;51.466;3.610;2023-09-18T00:07:31;20.60;99.90
30097;DHT22;16915;51.466;3.610;2023-09-18T00:09:57;20.60;99.90
30097;DHT22;16915;51.466;3.610;2023-09-18T00:12:22;20.60;99.90
30097;DHT22;16915;51.466;3.610;2023-09-18T00:14:51;20.60;99.90
30097;DHT22;16915;51.466;3.610;2023-09-18T00:17:17;20.60;99.90
30097;DHT22;16915;51.466;3.610;2023-09-18T00:19:43;20.60;99.90
30097;DHT22;16915;51.466;3.610;2023-09-18T00:22:08;20.70;99.90
30097;DHT22;16915;51.466;3.610;2023-09-18T00:24:34;20.60;99.90
30097;DHT22;16915;51.466;3.610;2023-09-18T00:27:00;20.60;99.90
30097;DHT22;16915;51.466;3.610;2023-09-18T00:29:25;20.60;99.90
30097;DHT22;16915;51.466;3.610;2023-09-18T00:31:51;20.60;99.90
30097;DHT22;16915;51.466;3.610;2023-09-18T00:34:16;20.50;99.90
30097;DHT22;16915;51.466;3.610;2023-09-18T00:36:42;20.50;99.90
30097;DHT22;16915;51.466;3.610;2023-09-18T00:39:07;20.50;99.90
30097;DHT22;16915;51.466;3.610;2023-09-18T00:41:33;20.50;99.90
30097;DHT22;16915;51.466;3.610;2023-09-18T00:43:59;20.50;99.90
30097;DHT22;16915;51.466;3.610;2023-09-18T00:46:25;20.40;99.90
30097;DHT22;16915;51.466;3.610;2023-09-18T00:48:50;20.40;99.90
30097;DHT22;16915;51.466;3.610;2023-09-18T00:51:17;20.50;99.90
30097;DHT22;16915;51.466;3.610;2023-09-18T00:53:44;20.40;99.90
30097;DHT22;16915;51.466;3.610;2023-09-18T00:56:10;20.50;99.90
30097;DHT22;16915;51.466;3.610;2023-09-18T00:58:36;20.40;99.90
30097;DHT22;16915;51.466;3.610;2023-09-18T01:01:03;20.40;99.90
30097;DHT22;16915;51.466;3.610;2023-09-18T01:03:32;20.50;99.90
30097;DHT22;16915;51.466;3.610;2023-09-18T01:05:59;20.40;99.90
30097;DHT22;16915;51.466;3.610;2023-09-18T01:08:25;20.40;99.90
30097;DHT22;16915;51.466;3.610;2023-09-18T01:13:48;20.40;99.90
30097;DHT22;16915;51.466;3.610;2023-09-18T01:16:29;20.40;99.90
30097;DHT22;16915;51.466;3.610;2023-09-18T01:18:56;20.40;99.90
30097;DHT22;16915;51.466;3.610;2023-09-18T01:21:21;20.50;99.90
30097;DHT22;16915;51.466;3.610;2023-09-18T01:23:48;20.50;99.90
30097;DHT22;16915;51.466;3.610;2023-09-18T01:26:14;20.50;99.90
30097;DHT22;16915;51.466;3.610;2023-09-18T01:28:40;20.50;99.90
30097;DHT22;16915;51.466;3.610;2023-09-18T01:31:05;20.50;99.90
30097;DHT22;16915;51.466;3.610;2023-09-18T01:33:32;20.50;99.90
30097;DHT22;16915;51.466;3.610;2023-09-18T01:35:59;20.40;99.90
30097;DHT22;16915;51.466;3.610;2023-09-18T01:38:26;20.40;99.90
30097;DHT22;16915;51.466;3.610;2023-09-18T01:40:53;20.40;99.90
30097;DHT22;16915;51.466;3.610;2023-09-18T01:43:19;20.30;99.90
30097;DHT22;16915;51.466;3.610;2023-09-18T01:45:46;20.20;99.90
30097;DHT22;16915;51.466;3.610;2023-09-18T01:48:13;20.20;99.90
30097;DHT22;16915;51.466;3.610;2023-09-18T01:50:39;20.10;99.90
30097;DHT22;16915;51.466;3.610;2023-09-18T01:53:07;20.10;99.90
30097;DHT22;16915;51.466;3.610;2023-09-18T01:55:33;20.00;99.90
30097;DHT22;16915;51.466;3.610;2023-09-18T01:57:59;19.90;99.90
30097;DHT22;16915;51.466;3.610;2023-09-18T02:00:24;19.90;99.90
30097;DHT22;16915;51.466;3.610;2023-09-18T02:02:50;19.90;99.90
30097;DHT22;16915;51.466;3.610;2023-09-18T02:05:16;19.80;99.90
30097;DHT22;16915;51.466;3.610;2023-09-18T02:07:41;19.80;99.90
30097;DHT22;16915;51.466;3.610;2023-09-18T02:10:07;19.70;99.90
30097;DHT22;16915;51.466;3.610;2023-09-18T02:12:33;19.70;99.90
30097;DHT22;16915;51.466;3.610;2023-09-18T02:14:59;19.70;99.90
30097;DHT22;16915;51.466;3.610;2023-09-18T02:17:26;19.70;99.90
30097;DHT22;16915;51.466;3.610;2023-09-18T02:19:52;19.70;99.90
30097;DHT22;16915;51.466;3.610;2023-09-18T02:22:17;19.70;99.90
30097;DHT22;16915;51.466;3.610;2023-09-18T02:24:43;19.60;99.90
30097;DHT22;16915;51.466;3.610;2023-09-18T02:27:08;19.60;99.90
30097;DHT22;16915;51.466;3.610;2023-09-18T02:29:35;19.70;99.90
30097;DHT22;16915;51.466;3.610;2023-09-18T02:32:01;19.60;99.90
30097;DHT22;16915;51.466;3.610;2023-09-18T02:34:27;19.60;99.90
30097;DHT22;16915;51.466;3.610;2023-09-18T02:36:53;19.60;99.90
30097;DHT22;16915;51.466;3.610;2023-09-18T02:39:19;19.60;99.90
30097;DHT22;16915;51.466;3.610;2023-09-18T02:41:45;19.70;99.90
30097;DHT22;16915;51.466;3.610;2023-09-18T02:44:10;19.70;99.90
30097;DHT22;16915;51.466;3.610;2023-09-18T02:46:37;19.70;99.90
30097;DHT22;16915;51.466;3.610;2023-09-18T02:49:04;19.80;99.90
30097;DHT22;16915;51.466;3.610;2023-09-18T02:51:29;19.80;99.90
30097;DHT22;16915;51.466;3.610;2023-09-18T02:53:57;19.80;99.90
30097;DHT22;16915;51.466;3.610;2023-09-18T02:56:23;19.80;99.90
30097;DHT22;16915;51.466;3.610;2023-09-18T02:58:48;19.70;99.90
30097;DHT22;16915;51.466;3.610;2023-09-18T03:01:14;19.80;99.90
30097;DHT22;16915;51.466;3.610;2023-09-18T03:03:40;19.80;99.90
30097;DHT22;16915;51.466;3.610;2023-09-18T03:06:07;19.70;99.90
30097;DHT22;16915;51.466;3.610;2023-09-18T03:08:33;19.80;99.90
30097;DHT22;16915;51.466;3.610;2023-09-18T03:11:00;19.80;99.90
30097;DHT22;16915;51.466;3.610;2023-09-18T03:13:27;19.70;99.90
30097;DHT22;16915;51.466;3.610;2023-09-18T03:15:53;19.70;99.90
30097;DHT22;16915;51.466;3.610;2023-09-18T03:18:19;19.70;99.90
30097;DHT22;16915;51.466;3.610;2023-09-18T03:20:45;19.70;99.90
30097;DHT22;16915;51.466;3.610;2023-09-18T03:23:11;19.60;99.90
30097;DHT22;16915;51.466;3.610;2023-09-18T03:25:36;19.70;99.90
30097;DHT22;16915;51.466;3.610;2023-09-18T03:28:05;19.60;99.90
30097;DHT22;16915;51.466;3.610;2023-09-18T03:30:31;19.60;99.90
30097;DHT22;16915;51.466;3.610;2023-09-18T03:32:57;19.60;99.90
30097;DHT22;16915;51.466;3.610;2023-09-18T03:35:22;19.60;99.90
30097;DHT22;16915;51.466;3.610;2023-09-18T03:37:50;19.60;99.90
30097;DHT22;16915;51.466;3.610;2023-09-18T03:40:17;19.60;99.90
30097;DHT22;16915;51.466;3.610;2023-09-18T03:42:43;19.60;99.90
30097;DHT22;16915;51.466;3.610;2023-09-18T03:45:09;19.60;99.90
30097;DHT22;16915;51.466;3.610;2023-09-18T03:47:40;19.60;99.90
30097;DHT22;16915;51.466;3.610;2023-09-18T03:50:08;19.50;99.90
30097;DHT22;16915;51.466;3.610;2023-09-18T03:52:33;19.50;99.90
30097;DHT22;16915;51.466;3.610;2023-09-18T03:54:59;19.60;99.90
30097;DHT22;16915;51.466;3.610;2023-09-18T03:57:25;19.50;99.90
30097;DHT22;16915;51.466;3.610;2023-09-18T03:59:50;19.50;99.90
30097;DHT22;16915;51.466;3.610;2023-09-18T04:02:16;19.50;99.90
30097;DHT22;16915;51.466;3.610;2023-09-18T04:04:41;19.40;99.90
30097;DHT22;16915;51.466;3.610;2023-09-18T04:07:08;19.40;99.90
30097;DHT22;16915;51.466;3.610;2023-09-18T04:09:34;19.40;99.90
30097;DHT22;16915;51.466;3.610;2023-09-18T04:12:04;19.40;99.90
30097;DHT22;16915;51.466;3.610;2023-09-18T04:14:33;19.40;99.90
30097;DHT22;16915;51.466;3.610;2023-09-18T04:16:58;19.30;99.90
30097;DHT22;16915;51.466;3.610;2023-09-18T04:19:26;19.30;99.90
30097;DHT22;16915;51.466;3.610;2023-09-18T04:21:51;19.20;99.90
30097;DHT22;16915;51.466;3.610;2023-09-18T04:24:17;19.20;99.90
30097;DHT22;16915;51.466;3.610;2023-09-18T04:26:42;19.20;99.90
30097;DHT22;16915;51.466;3.610;2023-09-18T04:29:09;19.10;99.90
30097;DHT22;16915;51.466;3.610;2023-09-18T04:31:34;19.10;99.90
30097;DHT22;16915;51.466;3.610;2023-09-18T04:34:00;19.00;99.90
30097;DHT22;16915;51.466;3.610;2023-09-18T04:36:25;19.00;99.90
30097;DHT22;16915;51.466;3.610;2023-09-18T04:38:51;18.90;99.90
30097;DHT22;16915;51.466;3.610;2023-09-18T04:41:17;18.90;99.90
30097;DHT22;16915;51.466;3.610;2023-09-18T04:43:42;18.90;99.90
30097;DHT22;16915;51.466;3.610;2023-09-18T04:46:08;18.80;99.90
30097;DHT22;16915;51.466;3.610;2023-09-18T04:48:34;18.80;99.90
30097;DHT22;16915;51.466;3.610;2023-09-18T04:51:00;18.80;99.90
30097;DHT22;16915;51.466;3.610;2023-09-18T04:53:29;18.80;99.90
30097;DHT22;16915;51.466;3.610;2023-09-18T04:55:55;18.70;99.90
30097;DHT22;16915;51.466;3.610;2023-09-18T04:58:21;18.70;99.90
30097;DHT22;16915;51.466;3.610;2023-09-18T05:00:54;18.70;99.90
30097;DHT22;16915;51.466;3.610;2023-09-18T05:03:20;18.70;99.90
30097;DHT22;16915;51.466;3.610;2023-09-18T05:05:46;18.70;99.90
30097;DHT22;16915;51.466;3.610;2023-09-18T05:08:11;18.60;99.90
30097;DHT22;16915;51.466;3.610;2023-09-18T05:10:37;18.60;99.90
30097;DHT22;16915;51.466;3.610;2023-09-18T05:13:03;18.60;99.90
30097;DHT22;16915;51.466;3.610;2023-09-18T05:15:29;18.50;99.90
30097;DHT22;16915;51.466;3.610;2023-09-18T05:17:56;18.50;99.90
30097;DHT22;16915;51.466;3.610;2023-09-18T05:20:24;18.50;99.90
30097;DHT22;16915;51.466;3.610;2023-09-18T05:22:51;18.50;99.90
30097;DHT22;16915;51.466;3.610;2023-09-18T05:25:20;18.40;99.90
30097;DHT22;16915;51.466;3.610;2023-09-18T05:27:47;18.40;99.90
30097;DHT22;16915;51.466;3.610;2023-09-18T05:30:21;18.40;99.90
30097;DHT22;16915;51.466;3.610;2023-09-18T05:32:48;18.40;99.90
30097;DHT22;16915;51.466;3.610;2023-09-18T05:35:14;18.30;99.90
30097;DHT22;16915;51.466;3.610;2023-09-18T05:37:41;18.30;99.90
30097;DHT22;16915;51.466;3.610;2023-09-18T05:40:08;18.30;99.90
30097;DHT22;16915;51.466;3.610;2023-09-18T05:42:41;18.30;99.90
30097;DHT22;16915;51.466;3.610;2023-09-18T05:45:11;18.20;99.90
30097;DHT22;16915;51.466;3.610;2023-09-18T05:47:37;18.20;99.90
30097;DHT22;16915;51.466;3.610;2023-09-18T05:50:08;18.20;99.90
30097;DHT22;16915;51.466;3.610;2023-09-18T05:52:34;18.20;99.90
30097;DHT22;16915;51.466;3.610;2023-09-18T05:55:03;18.20;99.90
30097;DHT22;16915;51.466;3.610;2023-09-18T05:57:29;18.10;99.90
30097;DHT22;16915;51.466;3.610;2023-09-18T05:59:55;18.10;99.90
30097;DHT22;16915;51.466;3.610;2023-09-18T06:02:21;18.10;99.90
30097;DHT22;16915;51.466;3.610;2023-09-18T06:04:48;18.10;99.90
30097;DHT22;16915;51.466;3.610;2023-09-18T06:07:14;18.00;99.90
30097;DHT22;16915;51.466;3.610;2023-09-18T06:09:40;18.00;99.90
30097;DHT22;16915;51.466;3.610;2023-09-18T06:12:06;18.00;99.90
30097;DHT22;16915;51.466;3.610;2023-09-18T06:14:32;18.00;99.90
30097;DHT22;16915;51.466;3.610;2023-09-18T06:17:00;17.90;99.90
30097;DHT22;16915;51.466;3.610;2023-09-18T06:19:26;18.00;99.90
30097;DHT22;16915;51.466;3.610;2023-09-18T06:21:51;17.90;99.90
30097;DHT22;16915;51.466;3.610;2023-09-18T06:24:17;18.00;99.90
30097;DHT22;16915;51.466;3.610;2023-09-18T06:26:42;18.00;99.90
30097;DHT22;16915;51.466;3.610;2023-09-18T06:29:08;18.00;99.90
30097;DHT22;16915;51.466;3.610;2023-09-18T06:31:35;18.00;99.90
30097;DHT22;16915;51.466;3.610;2023-09-18T06:34:00;18.10;99.90
30097;DHT22;16915;51.466;3.610;2023-09-18T06:36:26;18.00;99.90
30097;DHT22;16915;51.466;3.610;2023-09-18T06:38:51;18.00;99.90
30097;DHT22;16915;51.466;3.610;2023-09-18T06:41:17;18.00;99.90
30097;DHT22;16915;51.466;3.610;2023-09-18T06:43:42;18.00;99.90
30097;DHT22;16915;51.466;3.610;2023-09-18T06:46:08;18.00;99.90
30097;DHT22;16915;51.466;3.610;2023-09-18T06:48:34;18.00;99.90
30097;DHT22;16915;51.466;3.610;2023-09-18T06:51:00;18.10;99.90
30097;DHT22;16915;51.466;3.610;2023-09-18T06:53:28;18.10;99.90
30097;DHT22;16915;51.466;3.610;2023-09-18T06:55:54;18.10;99.90
30097;DHT22;16915;51.466;3.610;2023-09-18T06:58:20;18.10;99.90
30097;DHT22;16915;51.466;3.610;2023-09-18T07:00:46;18.20;99.90
30097;DHT22;16915;51.466;3.610;2023-09-18T07:03:12;18.20;99.90
30097;DHT22;16915;51.466;3.610;2023-09-18T07:05:39;18.30;99.90
30097;DHT22;16915;51.466;3.610;2023-09-18T07:08:05;18.30;99.90
30097;DHT22;16915;51.466;3.610;2023-09-18T07:10:35;18.30;99.90
30097;DHT22;16915;51.466;3.610;2023-09-18T07:13:01;18.40;99.90
30097;DHT22;16915;51.466;3.610;2023-09-18T07:15:26;18.40;99.90
30097;DHT22;16915;51.466;3.610;2023-09-18T07:17:52;18.50;99.90
30097;DHT22;16915;51.466;3.610;2023-09-18T07:20:17;18.50;99.90
30097;DHT22;16915;51.466;3.610;2023-09-18T07:22:46;18.60;99.90
30097;DHT22;16915;51.466;3.610;2023-09-18T07:25:13;18.70;99.90
30097;DHT22;16915;51.466;3.610;2023-09-18T07:27:38;18.80;99.90
30097;DHT22;16915;51.466;3.610;2023-09-18T07:30:13;18.80;99.90
30097;DHT22;16915;51.466;3.610;2023-09-18T07:32:42;18.90;99.90
30097;DHT22;16915;51.466;3.610;2023-09-18T07:35:09;19.00;99.90
30097;DHT22;16915;51.466;3.610;2023-09-18T07:37:35;19.10;99.90
30097;DHT22;16915;51.466;3.610;2023-09-18T07:40:10;19.30;99.90
30097;DHT22;16915;51.466;3.610;2023-09-18T07:42:36;19.40;99.90
30097;DHT22;16915;51.466;3.610;2023-09-18T07:45:02;19.30;99.90
30097;DHT22;16915;51.466;3.610;2023-09-18T07:47:28;19.30;99.90
30097;DHT22;16915;51.466;3.610;2023-09-18T07:49:53;19.30;99.90
30097;DHT22;16915;51.466;3.610;2023-09-18T07:52:20;19.30;99.90
30097;DHT22;16915;51.466;3.610;2023-09-18T07:54:45;19.20;99.90
30097;DHT22;16915;51.466;3.610;2023-09-18T07:57:11;19.20;99.90
30097;DHT22;16915;51.466;3.610;2023-09-18T07:59:37;19.20;99.90
30097;DHT22;16915;51.466;3.610;2023-09-18T08:02:04;19.10;99.90
30097;DHT22;16915;51.466;3.610;2023-09-18T08:04:33;19.20;99.90
30097;DHT22;16915;51.466;3.610;2023-09-18T08:06:59;19.10;99.90
30097;DHT22;16915;51.466;3.610;2023-09-18T08:09:25;19.10;99.90
30097;DHT22;16915;51.466;3.610;2023-09-18T08:11:51;19.10;99.90
30097;DHT22;16915;51.466;3.610;2023-09-18T08:14:23;19.30;99.90
30097;DHT22;16915;51.466;3.610;2023-09-18T08:16:56;19.40;99.90
30097;DHT22;16915;51.466;3.610;2023-09-18T08:19:22;19.60;99.90
30097;DHT22;16915;51.466;3.610;2023-09-18T08:21:48;19.70;99.90
30097;DHT22;16915;51.466;3.610;2023-09-18T08:24:14;19.80;99.90
30097;DHT22;16915;51.466;3.610;2023-09-18T08:26:40;20.00;99.90
30097;DHT22;16915;51.466;3.610;2023-09-18T08:29:05;20.00;99.90
30097;DHT22;16915;51.466;3.610;2023-09-18T08:31:31;20.00;99.90
30097;DHT22;16915;51.466;3.610;2023-09-18T08:33:57;20.10;99.90
30097;DHT22;16915;51.466;3.610;2023-09-18T08:36:23;20.30;99.90
30097;DHT22;16915;51.466;3.610;2023-09-18T08:38:48;20.40;99.90
30097;DHT22;16915;51.466;3.610;2023-09-18T08:41:16;20.50;99.90
30097;DHT22;16915;51.466;3.610;2023-09-18T08:43:43;20.50;99.90
30097;DHT22;16915;51.466;3.610;2023-09-18T08:46:10;20.50;99.90
30097;DHT22;16915;51.466;3.610;2023-09-18T08:48:36;20.60;99.90
30097;DHT22;16915;51.466;3.610;2023-09-18T08:51:06;20.50;99.90
30097;DHT22;16915;51.466;3.610;2023-09-18T08:53:33;20.50;99.90
30097;DHT22;16915;51.466;3.610;2023-09-18T08:55:59;20.70;99.90
30097;DHT22;16915;51.466;3.610;2023-09-18T08:58:29;20.80;99.90
30097;DHT22;16915;51.466;3.610;2023-09-18T09:00:57;20.80;99.90
30097;DHT22;16915;51.466;3.610;2023-09-18T09:03:23;20.80;99.90
30097;DHT22;16915;51.466;3.610;2023-09-18T09:05:49;21.00;99.90
30097;DHT22;16915;51.466;3.610;2023-09-18T09:08:15;21.10;99.90
30097;DHT22;16915;51.466;3.610;2023-09-18T09:10:41;21.00;99.90
30097;DHT22;16915;51.466;3.610;2023-09-18T09:13:06;20.80;99.90
30097;DHT22;16915;51.466;3.610;2023-09-18T09:15:42;20.90;99.90
30097;DHT22;16915;51.466;3.610;2023-09-18T09:18:11;20.90;99.90
30097;DHT22;16915;51.466;3.610;2023-09-18T09:20:37;20.80;99.90
30097;DHT22;16915;51.466;3.610;2023-09-18T09:23:08;20.70;99.90
30097;DHT22;16915;51.466;3.610;2023-09-18T09:25:34;20.70;99.90
30097;DHT22;16915;51.466;3.610;2023-09-18T09:28:06;20.70;99.90
30097;DHT22;16915;51.466;3.610;2023-09-18T09:30:34;21.00;99.90
30097;DHT22;16915;51.466;3.610;2023-09-18T09:33:05;21.10;99.90
30097;DHT22;16915;51.466;3.610;2023-09-18T09:35:33;21.30;99.90
30097;DHT22;16915;51.466;3.610;2023-09-18T09:38:07;21.40;99.90
30097;DHT22;16915;51.466;3.610;2023-09-18T09:40:34;21.50;99.90
30097;DHT22;16915;51.466;3.610;2023-09-18T09:43:01;21.40;99.90
30097;DHT22;16915;51.466;3.610;2023-09-18T09:45:29;21.40;99.90
30097;DHT22;16915;51.466;3.610;2023-09-18T09:47:56;21.40;99.90
30097;DHT22;16915;51.466;3.610;2023-09-18T09:50:23;21.50;99.90
30097;DHT22;16915;51.466;3.610;2023-09-18T09:52:52;21.50;99.90
30097;DHT22;16915;51.466;3.610;2023-09-18T09:55:29;21.50;99.90
30097;DHT22;16915;51.466;3.610;2023-09-18T09:58:00;21.70;99.90
30097;DHT22;16915;51.466;3.610;2023-09-18T10:00:30;21.60;99.90
30097;DHT22;16915;51.466;3.610;2023-09-18T10:03:00;21.60;99.90
30097;DHT22;16915;51.466;3.610;2023-09-18T10:05:29;21.70;99.90
30097;DHT22;16915;51.466;3.610;2023-09-18T10:07:57;21.70;99.90
30097;DHT22;16915;51.466;3.610;2023-09-18T10:10:31;21.60;99.90
30097;DHT22;16915;51.466;3.610;2023-09-18T10:13:01;21.70;99.90
30097;DHT22;16915;51.466;3.610;2023-09-18T10:15:29;21.80;99.90
30097;DHT22;16915;51.466;3.610;2023-09-18T10:18:00;21.80;99.90
30097;DHT22;16915;51.466;3.610;2023-09-18T10:20:27;21.90;99.90
30097;DHT22;16915;51.466;3.610;2023-09-18T10:22:57;21.90;99.90
30097;DHT22;16915;51.466;3.610;2023-09-18T10:25:28;21.80;99.90
30097;DHT22;16915;51.466;3.610;2023-09-18T10:27:57;21.60;99.90
30097;DHT22;16915;51.466;3.610;2023-09-18T10:30:24;21.70;99.90
30097;DHT22;16915;51.466;3.610;2023-09-18T10:32:52;22.10;99.90
30097;DHT22;16915;51.466;3.610;2023-09-18T10:35:18;22.50;99.90
30097;DHT22;16915;51.466;3.610;2023-09-18T10:37:46;22.90;99.90
30097;DHT22;16915;51.466;3.610;2023-09-18T10:40:13;23.20;99.90
30097;DHT22;16915;51.466;3.610;2023-09-18T10:42:40;23.60;99.90
30097;DHT22;16915;51.466;3.610;2023-09-18T10:45:08;23.70;99.90
30097;DHT22;16915;51.466;3.610;2023-09-18T10:47:43;23.60;99.90
30097;DHT22;16915;51.466;3.610;2023-09-18T10:50:11;23.50;99.90
30097;DHT22;16915;51.466;3.610;2023-09-18T10:52:42;23.90;99.90
30097;DHT22;16915;51.466;3.610;2023-09-18T10:55:11;24.00;99.90
30097;DHT22;16915;51.466;3.610;2023-09-18T10:57:37;24.10;99.90
30097;DHT22;16915;51.466;3.610;2023-09-18T11:00:14;23.80;99.90
30097;DHT22;16915;51.466;3.610;2023-09-18T11:02:42;23.60;99.90
30097;DHT22;16915;51.466;3.610;2023-09-18T11:05:08;23.20;99.90
30097;DHT22;16915;51.466;3.610;2023-09-18T11:07:33;22.90;99.90
30097;DHT22;16915;51.466;3.610;2023-09-18T11:09:59;23.20;99.90
30097;DHT22;16915;51.466;3.610;2023-09-18T11:12:45;23.50;99.90
30097;DHT22;16915;51.466;3.610;2023-09-18T11:15:26;23.30;99.90
30097;DHT22;16915;51.466;3.610;2023-09-18T11:17:59;23.40;99.90
30097;DHT22;16915;51.466;3.610;2023-09-18T11:20:26;23.40;99.90
30097;DHT22;16915;51.466;3.610;2023-09-18T11:28:06;23.40;99.90
30097;DHT22;16915;51.466;3.610;2023-09-18T11:30:36;23.50;99.90
30097;DHT22;16915;51.466;3.610;2023-09-18T11:33:03;23.50;99.90
30097;DHT22;16915;51.466;3.610;2023-09-18T11:35:29;23.80;99.90
30097;DHT22;16915;51.466;3.610;2023-09-18T11:38:10;24.00;99.90
30097;DHT22;16915;51.466;3.610;2023-09-18T11:40:38;24.20;99.90
30097;DHT22;16915;51.466;3.610;2023-09-18T11:45:53;24.60;99.90
30097;DHT22;16915;51.466;3.610;2023-09-18T11:48:21;24.70;99.90
30097;DHT22;16915;51.466;3.610;2023-09-18T11:50:49;25.00;99.90
30097;DHT22;16915;51.466;3.610;2023-09-18T11:53:19;25.10;99.90
30097;DHT22;16915;51.466;3.610;2023-09-18T11:55:45;25.10;99.90
30097;DHT22;16915;51.466;3.610;2023-09-18T11:58:13;25.10;99.90
30097;DHT22;16915;51.466;3.610;2023-09-18T12:00:39;24.90;99.90
30097;DHT22;16915;51.466;3.610;2023-09-18T12:03:20;25.00;99.90
30097;DHT22;16915;51.466;3.610;2023-09-18T12:06:01;25.10;99.90
30097;DHT22;16915;51.466;3.610;2023-09-18T12:08:29;25.00;99.90
30097;DHT22;16915;51.466;3.610;2023-09-18T12:10:56;25.00;99.90
30097;DHT22;16915;51.466;3.610;2023-09-18T12:13:24;25.20;99.90
30097;DHT22;16915;51.466;3.610;2023-09-18T12:16:02;25.50;99.90
30097;DHT22;16915;51.466;3.610;2023-09-18T12:18:31;25.00;99.90
30097;DHT22;16915;51.466;3.610;2023-09-18T12:20:57;24.70;99.90
30097;DHT22;16915;51.466;3.610;2023-09-18T12:23:24;24.60;99.90
30097;DHT22;16915;51.466;3.610;2023-09-18T12:25:57;24.20;99.90
30097;DHT22;16915;51.466;3.610;2023-09-18T12:28:25;23.80;99.90
30097;DHT22;16915;51.466;3.610;2023-09-18T12:30:52;23.30;99.90
30097;DHT22;16915;51.466;3.610;2023-09-18T12:33:24;22.90;99.90
30097;DHT22;16915;51.466;3.610;2023-09-18T12:35:50;22.60;99.90
30097;DHT22;16915;51.466;3.610;2023-09-18T12:38:17;22.30;99.90
30097;DHT22;16915;51.466;3.610;2023-09-18T12:40:50;22.20;99.90
30097;DHT22;16915;51.466;3.610;2023-09-18T12:43:17;22.10;99.90
30097;DHT22;16915;51.466;3.610;2023-09-18T12:45:44;22.00;99.90
30097;DHT22;16915;51.466;3.610;2023-09-18T12:48:12;22.00;99.90
30097;DHT22;16915;51.466;3.610;2023-09-18T12:50:37;21.90;99.90
30097;DHT22;16915;51.466;3.610;2023-09-18T12:53:10;21.90;99.90
30097;DHT22;16915;51.466;3.610;2023-09-18T12:55:37;21.80;99.90
30097;DHT22;16915;51.466;3.610;2023-09-18T12:58:03;21.70;99.90
30097;DHT22;16915;51.466;3.610;2023-09-18T13:00:33;21.80;99.90
30097;DHT22;16915;51.466;3.610;2023-09-18T13:02:59;21.80;99.90
30097;DHT22;16915;51.466;3.610;2023-09-18T13:05:25;21.80;99.90
30097;DHT22;16915;51.466;3.610;2023-09-18T13:07:54;21.80;99.90
30097;DHT22;16915;51.466;3.610;2023-09-18T13:10:21;21.70;99.90
30097;DHT22;16915;51.466;3.610;2023-09-18T13:12:51;21.40;99.90
30097;DHT22;16915;51.466;3.610;2023-09-18T13:15:28;20.70;99.90
30097;DHT22;16915;51.466;3.610;2023-09-18T13:17:56;19.90;99.90
30097;DHT22;16915;51.466;3.610;2023-09-18T13:20:24;19.20;99.90
30097;DHT22;16915;51.466;3.610;2023-09-18T13:22:51;18.80;99.90
30097;DHT22;16915;51.466;3.610;2023-09-18T13:25:27;18.50;99.90
30097;DHT22;16915;51.466;3.610;2023-09-18T13:27:53;18.40;99.90
30097;DHT22;16915;51.466;3.610;2023-09-18T13:30:22;18.30;99.90
30097;DHT22;16915;51.466;3.610;2023-09-18T13:32:49;18.30;99.90
30097;DHT22;16915;51.466;3.610;2023-09-18T13:35:16;18.40;99.90
30097;DHT22;16915;51.466;3.610;2023-09-18T13:37:42;18.70;99.90
30097;DHT22;16915;51.466;3.610;2023-09-18T13:40:09;19.10;99.90
30097;DHT22;16915;51.466;3.610;2023-09-18T13:42:35;19.50;99.90
30097;DHT22;16915;51.466;3.610;2023-09-18T13:45:02;19.90;99.90
30097;DHT22;16915;51.466;3.610;2023-09-18T13:47:32;20.50;99.90
30097;DHT22;16915;51.466;3.610;2023-09-18T13:49:58;20.70;99.90
30097;DHT22;16915;51.466;3.610;2023-09-18T13:52:28;20.60;99.90
30097;DHT22;16915;51.466;3.610;2023-09-18T13:54:55;20.30;99.90
30097;DHT22;16915;51.466;3.610;2023-09-18T13:57:21;20.30;99.90
30097;DHT22;16915;51.466;3.610;2023-09-18T13:59:48;20.30;99.90
30097;DHT22;16915;51.466;3.610;2023-09-18T14:02:14;20.30;99.90
30097;DHT22;16915;51.466;3.610;2023-09-18T14:04:40;20.40;99.90
30097;DHT22;16915;51.466;3.610;2023-09-18T14:07:06;21.20;99.90
30097;DHT22;16915;51.466;3.610;2023-09-18T14:09:32;22.20;99.90
30097;DHT22;16915;51.466;3.610;2023-09-18T14:11:58;22.40;99.90
30097;DHT22;16915;51.466;3.610;2023-09-18T14:14:23;22.40;99.90
30097;DHT22;16915;51.466;3.610;2023-09-18T14:16:49;22.30;99.90
30097;DHT22;16915;51.466;3.610;2023-09-18T14:19:19;22.00;99.90
30097;DHT22;16915;51.466;3.610;2023-09-18T14:21:44;22.20;99.90
30097;DHT22;16915;51.466;3.610;2023-09-18T14:24:10;22.40;99.90
30097;DHT22;16915;51.466;3.610;2023-09-18T14:26:36;22.70;99.90
30097;DHT22;16915;51.466;3.610;2023-09-18T14:29:10;23.20;99.90
30097;DHT22;16915;51.466;3.610;2023-09-18T14:31:37;22.90;99.90
30097;DHT22;16915;51.466;3.610;2023-09-18T14:34:03;22.40;99.90
30097;DHT22;16915;51.466;3.610;2023-09-18T14:36:34;22.40;99.90
30097;DHT22;16915;51.466;3.610;2023-09-18T14:39:03;22.30;99.90
30097;DHT22;16915;51.466;3.610;2023-09-18T14:41:29;21.80;99.90
30097;DHT22;16915;51.466;3.610;2023-09-18T14:43:55;21.30;99.90
30097;DHT22;16915;51.466;3.610;2023-09-18T14:46:23;21.10;99.90
30097;DHT22;16915;51.466;3.610;2023-09-18T14:48:48;21.00;99.90
30097;DHT22;16915;51.466;3.610;2023-09-18T14:51:14;21.00;99.90
30097;DHT22;16915;51.466;3.610;2023-09-18T14:53:40;21.00;99.90
30097;DHT22;16915;51.466;3.610;2023-09-18T14:56:05;21.10;99.90
30097;DHT22;16915;51.466;3.610;2023-09-18T14:58:31;20.90;99.90
30097;DHT22;16915;51.466;3.610;2023-09-18T15:00:59;20.80;99.90
30097;DHT22;16915;51.466;3.610;2023-09-18T15:03:25;20.80;99.90
30097;DHT22;16915;51.466;3.610;2023-09-18T15:05:51;20.80;99.90
30097;DHT22;16915;51.466;3.610;2023-09-18T15:08:18;20.80;99.90
30097;DHT22;16915;51.466;3.610;2023-09-18T15:10:45;20.80;99.90
30097;DHT22;16915;51.466;3.610;2023-09-18T15:13:11;20.80;99.90
30097;DHT22;16915;51.466;3.610;2023-09-18T15:15:39;20.90;99.90
30097;DHT22;16915;51.466;3.610;2023-09-18T15:18:05;20.80;99.90
30097;DHT22;16915;51.466;3.610;2023-09-18T15:20:31;20.90;99.90
30097;DHT22;16915;51.466;3.610;2023-09-18T15:22:57;20.90;99.90
30097;DHT22;16915;51.466;3.610;2023-09-18T15:25:23;21.00;99.90
30097;DHT22;16915;51.466;3.610;2023-09-18T15:27:49;21.10;99.90
30097;DHT22;16915;51.466;3.610;2023-09-18T15:30:14;21.20;99.90
30097;DHT22;16915;51.466;3.610;2023-09-18T15:35:33;20.90;99.90
30097;DHT22;16915;51.466;3.610;2023-09-18T15:37:59;20.80;99.90
30097;DHT22;16915;51.466;3.610;2023-09-18T15:40:26;20.60;99.90
30097;DHT22;16915;51.466;3.610;2023-09-18T15:42:52;20.60;99.90